AAL772 KSAN-KDFW
Flight info
| Callsign | AAL772 |
|---|---|
| Flight time | 2h 18m |
| Altitude | 37000 |
| Route | ZZOOO4 GBN J50 SSO J4 INK GEEKY SHMPP3 |
| Aircraft | A21N/M-SDE2E3FGHIJ1RWXY/LB1 |
Departure
| Time | 2026-05-06 13:13 |
|---|---|
| Airport | San Diego International Airport (KSAN) |
Arrival
| Time | 2026-05-06 15:31 |
|---|---|
| Airport | Dallas Fort Worth International Airport (KDFW) |
| Time | Latitude | Longitude | Altitude | Speed | Heading |
|---|---|---|---|---|---|
| 2026-05-06 12:56 | 32.73395 | -117.20052 | 18 ft | 0 kts | 254° |
| 2026-05-06 13:02 | 32.73396 | -117.20049 | 18 ft | 2 kts | 255° |
| 2026-05-06 13:02 | 32.73400 | -117.20033 | 18 ft | 2 kts | 254° |
| 2026-05-06 13:02 | 32.73403 | -117.20015 | 18 ft | 2 kts | 255° |
| 2026-05-06 13:03 | 32.73408 | -117.19997 | 18 ft | 2 kts | 254° |
| 2026-05-06 13:03 | 32.73412 | -117.19980 | 18 ft | 2 kts | 250° |
| 2026-05-06 13:03 | 32.73421 | -117.19966 | 18 ft | 2 kts | 208° |
| 2026-05-06 13:03 | 32.73436 | -117.19961 | 18 ft | 2 kts | 187° |
| 2026-05-06 13:04 | 32.73450 | -117.19958 | 18 ft | 2 kts | 195° |
| 2026-05-06 13:04 | 32.73460 | -117.19955 | 18 ft | 2 kts | 191° |
| 2026-05-06 13:04 | 32.73475 | -117.19955 | 18 ft | 2 kts | 162° |
| 2026-05-06 13:04 | 32.73488 | -117.19963 | 18 ft | 2 kts | 140° |
| 2026-05-06 13:05 | 32.73498 | -117.19977 | 18 ft | 2 kts | 117° |
| 2026-05-06 13:05 | 32.73501 | -117.19985 | 18 ft | 1 kts | 104° |
| 2026-05-06 13:05 | 32.73502 | -117.19991 | 18 ft | 0 kts | 106° |
| 2026-05-06 13:07 | 32.73501 | -117.19986 | 18 ft | 1 kts | 107° |
| 2026-05-06 13:07 | 32.73495 | -117.19966 | 18 ft | 3 kts | 108° |
| 2026-05-06 13:07 | 32.73486 | -117.19929 | 18 ft | 6 kts | 107° |
| 2026-05-06 13:08 | 32.73468 | -117.19863 | 18 ft | 9 kts | 108° |
| 2026-05-06 13:08 | 32.73450 | -117.19791 | 19 ft | 8 kts | 105° |
| 2026-05-06 13:08 | 32.73431 | -117.19707 | 19 ft | 13 kts | 105° |
| 2026-05-06 13:08 | 32.73407 | -117.19595 | 20 ft | 14 kts | 106° |
| 2026-05-06 13:09 | 32.73376 | -117.19484 | 21 ft | 14 kts | 105° |
| 2026-05-06 13:09 | 32.73348 | -117.19363 | 21 ft | 15 kts | 108° |
| 2026-05-06 13:09 | 32.73318 | -117.19237 | 21 ft | 15 kts | 105° |
| 2026-05-06 13:09 | 32.73288 | -117.19111 | 20 ft | 16 kts | 105° |
| 2026-05-06 13:10 | 32.73255 | -117.18973 | 20 ft | 18 kts | 108° |
| 2026-05-06 13:10 | 32.73216 | -117.18825 | 19 ft | 19 kts | 106° |
| 2026-05-06 13:10 | 32.73180 | -117.18669 | 18 ft | 19 kts | 105° |
| 2026-05-06 13:10 | 32.73143 | -117.18510 | 18 ft | 20 kts | 108° |
| 2026-05-06 13:11 | 32.73103 | -117.18353 | 18 ft | 19 kts | 107° |
| 2026-05-06 13:11 | 32.73069 | -117.18208 | 18 ft | 15 kts | 105° |
| 2026-05-06 13:11 | 32.73089 | -117.18120 | 18 ft | 9 kts | 17° |
| 2026-05-06 13:11 | 32.73148 | -117.18150 | 18 ft | 10 kts | 315° |
| 2026-05-06 13:12 | 32.73167 | -117.18185 | 18 ft | 0 kts | 285° |
| 2026-05-06 13:12 | 32.73183 | -117.18256 | 18 ft | 39 kts | 285° |
| 2026-05-06 13:12 | 32.73336 | -117.18900 | 22 ft | 119 kts | 287° |
| 2026-05-06 13:12 | 32.73630 | -117.20093 | 66 ft | 176 kts | 288° |
| 2026-05-06 13:13 | 32.74005 | -117.21512 | 707 ft | 183 kts | 288° |
| 2026-05-06 13:13 | 32.74333 | -117.22935 | 1665 ft | 179 kts | 287° |
| 2026-05-06 13:13 | 32.74665 | -117.24362 | 2376 ft | 189 kts | 288° |
| 2026-05-06 13:13 | 32.75051 | -117.25931 | 2985 ft | 205 kts | 288° |
| 2026-05-06 13:14 | 32.75465 | -117.27618 | 3561 ft | 224 kts | 288° |
| 2026-05-06 13:14 | 32.75917 | -117.29483 | 4183 ft | 243 kts | 288° |
| 2026-05-06 13:14 | 32.76380 | -117.31428 | 5163 ft | 246 kts | 287° |
| 2026-05-06 13:14 | 32.76477 | -117.33476 | 6017 ft | 256 kts | 258° |
| 2026-05-06 13:15 | 32.75621 | -117.35338 | 6861 ft | 264 kts | 225° |
| 2026-05-06 13:15 | 32.74033 | -117.36448 | 7637 ft | 269 kts | 192° |
| 2026-05-06 13:15 | 32.72194 | -117.36420 | 8390 ft | 268 kts | 159° |
| 2026-05-06 13:15 | 32.70647 | -117.35283 | 9142 ft | 263 kts | 127° |
| 2026-05-06 13:16 | 32.69501 | -117.33617 | 9942 ft | 264 kts | 123° |
| 2026-05-06 13:16 | 32.68339 | -117.31898 | 10728 ft | 269 kts | 124° |
| 2026-05-06 13:16 | 32.67152 | -117.30188 | 11495 ft | 273 kts | 124° |
| 2026-05-06 13:16 | 32.65911 | -117.28439 | 12279 ft | 276 kts | 125° |
| 2026-05-06 13:17 | 32.64671 | -117.26706 | 13011 ft | 280 kts | 125° |
| 2026-05-06 13:17 | 32.63557 | -117.24867 | 13713 ft | 278 kts | 111° |
| 2026-05-06 13:17 | 32.62948 | -117.22727 | 14356 ft | 276 kts | 95° |
| 2026-05-06 13:17 | 32.62715 | -117.20412 | 14761 ft | 290 kts | 91° |
| 2026-05-06 13:18 | 32.62522 | -117.17951 | 15111 ft | 308 kts | 91° |
| 2026-05-06 13:18 | 32.62311 | -117.15381 | 15440 ft | 325 kts | 91° |
| 2026-05-06 13:18 | 32.62127 | -117.12662 | 15829 ft | 337 kts | 86° |
| 2026-05-06 13:18 | 32.62320 | -117.09911 | 16470 ft | 338 kts | 76° |
| 2026-05-06 13:19 | 32.62936 | -117.07238 | 17204 ft | 337 kts | 67° |
| 2026-05-06 13:19 | 32.63761 | -117.04642 | 17895 ft | 340 kts | 65° |
| 2026-05-06 13:19 | 32.64620 | -117.02034 | 18585 ft | 342 kts | 65° |
| 2026-05-06 13:19 | 32.65493 | -116.99380 | 19284 ft | 344 kts | 66° |
| 2026-05-06 13:20 | 32.66188 | -116.96677 | 19949 ft | 349 kts | 73° |
| 2026-05-06 13:20 | 32.66607 | -116.93856 | 20596 ft | 354 kts | 79° |
| 2026-05-06 13:20 | 32.66765 | -116.90941 | 21245 ft | 357 kts | 83° |
| 2026-05-06 13:20 | 32.66841 | -116.87994 | 21856 ft | 360 kts | 83° |
| 2026-05-06 13:21 | 32.66906 | -116.85003 | 22403 ft | 364 kts | 83° |
| 2026-05-06 13:21 | 32.66972 | -116.82015 | 22973 ft | 366 kts | 83° |
| 2026-05-06 13:21 | 32.67039 | -116.79009 | 23534 ft | 368 kts | 83° |
| 2026-05-06 13:21 | 32.67108 | -116.75948 | 24040 ft | 372 kts | 83° |
| 2026-05-06 13:22 | 32.67092 | -116.72879 | 24556 ft | 375 kts | 85° |
| 2026-05-06 13:22 | 32.67051 | -116.69787 | 25044 ft | 378 kts | 85° |
| 2026-05-06 13:22 | 32.67002 | -116.66670 | 25505 ft | 381 kts | 85° |
| 2026-05-06 13:22 | 32.66952 | -116.63525 | 25957 ft | 384 kts | 86° |
| 2026-05-06 13:23 | 32.66901 | -116.60352 | 26405 ft | 386 kts | 85° |
| 2026-05-06 13:23 | 32.66847 | -116.57162 | 26819 ft | 389 kts | 85° |
| 2026-05-06 13:23 | 32.66793 | -116.53949 | 27173 ft | 393 kts | 85° |
| 2026-05-06 13:23 | 32.66738 | -116.50691 | 27550 ft | 397 kts | 85° |
| 2026-05-06 13:24 | 32.66682 | -116.47451 | 27914 ft | 400 kts | 86° |
| 2026-05-06 13:24 | 32.66664 | -116.44126 | 28267 ft | 402 kts | 83° |
| 2026-05-06 13:24 | 32.66792 | -116.40828 | 28640 ft | 402 kts | 81° |
| 2026-05-06 13:24 | 32.67055 | -116.37565 | 29040 ft | 402 kts | 78° |
| 2026-05-06 13:25 | 32.67352 | -116.34248 | 29369 ft | 405 kts | 79° |
| 2026-05-06 13:25 | 32.67657 | -116.30904 | 29634 ft | 409 kts | 79° |
| 2026-05-06 13:25 | 32.67959 | -116.27580 | 29935 ft | 412 kts | 79° |
| 2026-05-06 13:25 | 32.68266 | -116.24186 | 30220 ft | 415 kts | 79° |
| 2026-05-06 13:26 | 32.68575 | -116.20770 | 30494 ft | 418 kts | 79° |
| 2026-05-06 13:26 | 32.68881 | -116.17340 | 30779 ft | 420 kts | 79° |
| 2026-05-06 13:26 | 32.69186 | -116.13910 | 31113 ft | 421 kts | 79° |
| 2026-05-06 13:26 | 32.69493 | -116.10456 | 31435 ft | 422 kts | 79° |
| 2026-05-06 13:27 | 32.69798 | -116.07020 | 31771 ft | 421 kts | 79° |
| 2026-05-06 13:27 | 32.70104 | -116.03569 | 32041 ft | 423 kts | 80° |
| 2026-05-06 13:27 | 32.70423 | -116.00101 | 32331 ft | 424 kts | 79° |
| 2026-05-06 13:27 | 32.70753 | -115.96561 | 32669 ft | 424 kts | 79° |
| 2026-05-06 13:28 | 32.71076 | -115.93092 | 32963 ft | 424 kts | 79° |
| 2026-05-06 13:28 | 32.71397 | -115.89642 | 33212 ft | 426 kts | 80° |
| 2026-05-06 13:28 | 32.71724 | -115.86130 | 33473 ft | 427 kts | 80° |
| 2026-05-06 13:28 | 32.72049 | -115.82565 | 33700 ft | 429 kts | 80° |
| 2026-05-06 13:29 | 32.72372 | -115.79028 | 33880 ft | 431 kts | 80° |
| 2026-05-06 13:29 | 32.72697 | -115.75476 | 34056 ft | 433 kts | 81° |
| 2026-05-06 13:29 | 32.73023 | -115.71899 | 34263 ft | 435 kts | 81° |
| 2026-05-06 13:29 | 32.73345 | -115.68323 | 34540 ft | 433 kts | 81° |
| 2026-05-06 13:30 | 32.73665 | -115.64761 | 34802 ft | 432 kts | 81° |
| 2026-05-06 13:30 | 32.73988 | -115.61156 | 34945 ft | 434 kts | 81° |
| 2026-05-06 13:30 | 32.74305 | -115.57600 | 35077 ft | 437 kts | 82° |
| 2026-05-06 13:30 | 32.74631 | -115.53957 | 35235 ft | 439 kts | 82° |
| 2026-05-06 13:31 | 32.74899 | -115.50345 | 35401 ft | 441 kts | 84° |
| 2026-05-06 13:31 | 32.75023 | -115.46696 | 35550 ft | 443 kts | 86° |
| 2026-05-06 13:31 | 32.75117 | -115.43012 | 35697 ft | 446 kts | 86° |
| 2026-05-06 13:31 | 32.75204 | -115.39334 | 35839 ft | 448 kts | 86° |
| 2026-05-06 13:32 | 32.75288 | -115.35611 | 36005 ft | 450 kts | 87° |
| 2026-05-06 13:32 | 32.75374 | -115.31892 | 36131 ft | 452 kts | 87° |
| 2026-05-06 13:32 | 32.75458 | -115.28178 | 36255 ft | 455 kts | 88° |
| 2026-05-06 13:32 | 32.75542 | -115.24444 | 36399 ft | 457 kts | 88° |
| 2026-05-06 13:33 | 32.75628 | -115.20641 | 36545 ft | 458 kts | 88° |
| 2026-05-06 13:33 | 32.75712 | -115.16880 | 36875 ft | 459 kts | 88° |
| 2026-05-06 13:33 | 32.75795 | -115.13107 | 36993 ft | 460 kts | 88° |
| 2026-05-06 13:34 | 32.75956 | -115.05493 | 37007 ft | 463 kts | 88° |
| 2026-05-06 13:34 | 32.76115 | -114.97874 | 37009 ft | 464 kts | 89° |
| 2026-05-06 13:35 | 32.76269 | -114.90193 | 37009 ft | 465 kts | 89° |
| 2026-05-06 13:35 | 32.76418 | -114.82546 | 37008 ft | 466 kts | 89° |
| 2026-05-06 13:36 | 32.76565 | -114.74828 | 37006 ft | 468 kts | 89° |
| 2026-05-06 13:36 | 32.76706 | -114.67130 | 37001 ft | 469 kts | 89° |
| 2026-05-06 13:37 | 32.76843 | -114.59395 | 37008 ft | 471 kts | 89° |
| 2026-05-06 13:37 | 32.76960 | -114.51621 | 37010 ft | 473 kts | 89° |
| 2026-05-06 13:38 | 32.77066 | -114.43801 | 37008 ft | 474 kts | 89° |
| 2026-05-06 13:38 | 32.77168 | -114.35973 | 37014 ft | 474 kts | 89° |
| 2026-05-06 13:39 | 32.77266 | -114.28126 | 37008 ft | 476 kts | 90° |
| 2026-05-06 13:39 | 32.77359 | -114.20260 | 37010 ft | 478 kts | 90° |
| 2026-05-06 13:40 | 32.77445 | -114.12424 | 37010 ft | 478 kts | 91° |
| 2026-05-06 13:40 | 32.77527 | -114.04528 | 37009 ft | 479 kts | 91° |
| 2026-05-06 13:41 | 32.77808 | -113.96618 | 37010 ft | 481 kts | 85° |
| 2026-05-06 13:41 | 32.78788 | -113.88746 | 37012 ft | 485 kts | 81° |
| 2026-05-06 13:42 | 32.79948 | -113.80841 | 37013 ft | 486 kts | 81° |
| 2026-05-06 13:42 | 32.81089 | -113.72935 | 37011 ft | 487 kts | 81° |
| 2026-05-06 13:43 | 32.82220 | -113.64999 | 37012 ft | 487 kts | 81° |
| 2026-05-06 13:43 | 32.83341 | -113.57094 | 37013 ft | 487 kts | 81° |
| 2026-05-06 13:44 | 32.84450 | -113.49216 | 37014 ft | 489 kts | 81° |
| 2026-05-06 13:44 | 32.85564 | -113.41268 | 37011 ft | 490 kts | 81° |
| 2026-05-06 13:45 | 32.86682 | -113.33251 | 37011 ft | 490 kts | 82° |
| 2026-05-06 13:45 | 32.88347 | -113.21239 | 37015 ft | 493 kts | 82° |
| 2026-05-06 13:46 | 32.89462 | -113.13142 | 37018 ft | 494 kts | 82° |
| 2026-05-06 13:46 | 32.90574 | -113.05012 | 37011 ft | 495 kts | 82° |
| 2026-05-06 13:47 | 32.91675 | -112.96928 | 37013 ft | 497 kts | 82° |
| 2026-05-06 13:47 | 32.92777 | -112.88813 | 37015 ft | 498 kts | 82° |
| 2026-05-06 13:48 | 32.93868 | -112.80686 | 37020 ft | 498 kts | 82° |
| 2026-05-06 13:48 | 32.94892 | -112.72566 | 37023 ft | 496 kts | 85° |
| 2026-05-06 13:49 | 32.95223 | -112.64360 | 37024 ft | 494 kts | 94° |
| 2026-05-06 13:49 | 32.94700 | -112.56226 | 37031 ft | 494 kts | 99° |
| 2026-05-06 13:50 | 32.93933 | -112.48132 | 37034 ft | 495 kts | 100° |
| 2026-05-06 13:50 | 32.93175 | -112.40004 | 37035 ft | 498 kts | 100° |
| 2026-05-06 13:51 | 32.92424 | -112.31841 | 37031 ft | 496 kts | 100° |
| 2026-05-06 13:51 | 32.91677 | -112.23713 | 37032 ft | 499 kts | 101° |
| 2026-05-06 13:52 | 32.90919 | -112.15532 | 37033 ft | 501 kts | 101° |
| 2026-05-06 13:52 | 32.90151 | -112.07303 | 37034 ft | 502 kts | 101° |
| 2026-05-06 13:53 | 32.89369 | -111.99022 | 37033 ft | 505 kts | 101° |
| 2026-05-06 13:53 | 32.88456 | -111.90798 | 37028 ft | 501 kts | 105° |
| 2026-05-06 13:54 | 32.86852 | -111.82779 | 37037 ft | 498 kts | 111° |
| 2026-05-06 13:54 | 32.85057 | -111.74870 | 37043 ft | 499 kts | 111° |
| 2026-05-06 13:55 | 32.83265 | -111.66885 | 37048 ft | 501 kts | 111° |
| 2026-05-06 13:55 | 32.81484 | -111.58920 | 37055 ft | 503 kts | 111° |
| 2026-05-06 13:56 | 32.79690 | -111.50884 | 37055 ft | 502 kts | 111° |
| 2026-05-06 13:56 | 32.77888 | -111.42880 | 37061 ft | 505 kts | 112° |
| 2026-05-06 13:57 | 32.76069 | -111.34824 | 37063 ft | 506 kts | 112° |
| 2026-05-06 13:57 | 32.74255 | -111.26816 | 37065 ft | 507 kts | 112° |
| 2026-05-06 13:58 | 32.72428 | -111.18758 | 37065 ft | 506 kts | 113° |
| 2026-05-06 13:58 | 32.70581 | -111.10668 | 37071 ft | 509 kts | 113° |
| 2026-05-06 13:59 | 32.68737 | -111.02621 | 37068 ft | 511 kts | 113° |
| 2026-05-06 13:59 | 32.66878 | -110.94498 | 37075 ft | 512 kts | 113° |
| 2026-05-06 14:00 | 32.65001 | -110.86341 | 37087 ft | 512 kts | 113° |
| 2026-05-06 14:00 | 32.63133 | -110.78242 | 37088 ft | 511 kts | 113° |
| 2026-05-06 14:01 | 32.61240 | -110.70084 | 37095 ft | 513 kts | 114° |
| 2026-05-06 14:01 | 32.59359 | -110.61996 | 37093 ft | 514 kts | 114° |
| 2026-05-06 14:02 | 32.57459 | -110.53841 | 37090 ft | 513 kts | 114° |
| 2026-05-06 14:02 | 32.55555 | -110.45687 | 37085 ft | 514 kts | 114° |
| 2026-05-06 14:03 | 32.53646 | -110.37560 | 37086 ft | 514 kts | 114° |
| 2026-05-06 14:03 | 32.51733 | -110.29424 | 37091 ft | 514 kts | 115° |
| 2026-05-06 14:04 | 32.49813 | -110.21310 | 37094 ft | 515 kts | 115° |
| 2026-05-06 14:04 | 32.47892 | -110.13201 | 37096 ft | 515 kts | 115° |
| 2026-05-06 14:05 | 32.45962 | -110.05067 | 37098 ft | 514 kts | 115° |
| 2026-05-06 14:05 | 32.44010 | -109.96889 | 37104 ft | 515 kts | 115° |
| 2026-05-06 14:06 | 32.42071 | -109.88773 | 37101 ft | 515 kts | 115° |
| 2026-05-06 14:06 | 32.40609 | -109.82680 | 37101 ft | 515 kts | 115° |
| 2026-05-06 14:07 | 32.38161 | -109.72504 | 37103 ft | 515 kts | 116° |
| 2026-05-06 14:07 | 32.36203 | -109.64389 | 37104 ft | 515 kts | 116° |
| 2026-05-06 14:08 | 32.34228 | -109.56238 | 37104 ft | 516 kts | 116° |
| 2026-05-06 14:08 | 32.32270 | -109.48171 | 37103 ft | 515 kts | 116° |
| 2026-05-06 14:09 | 32.30281 | -109.40010 | 37102 ft | 516 kts | 116° |
| 2026-05-06 14:09 | 32.28300 | -109.31896 | 37096 ft | 515 kts | 116° |
| 2026-05-06 14:10 | 32.26685 | -109.23612 | 37093 ft | 525 kts | 108° |
| 2026-05-06 14:10 | 32.25796 | -109.15026 | 37095 ft | 526 kts | 104° |
| 2026-05-06 14:11 | 32.25027 | -109.06491 | 37100 ft | 527 kts | 105° |
| 2026-05-06 14:11 | 32.24226 | -108.97884 | 37103 ft | 526 kts | 105° |
| 2026-05-06 14:12 | 32.23402 | -108.89331 | 37106 ft | 526 kts | 105° |
| 2026-05-06 14:12 | 32.22568 | -108.80787 | 37110 ft | 526 kts | 105° |
| 2026-05-06 14:13 | 32.21733 | -108.72248 | 37105 ft | 526 kts | 105° |
| 2026-05-06 14:13 | 32.20888 | -108.63715 | 37105 ft | 526 kts | 105° |
| 2026-05-06 14:14 | 32.20041 | -108.55182 | 37111 ft | 526 kts | 105° |
| 2026-05-06 14:14 | 32.19182 | -108.46600 | 37114 ft | 526 kts | 105° |
| 2026-05-06 14:15 | 32.18322 | -108.38084 | 37113 ft | 526 kts | 105° |
| 2026-05-06 14:15 | 32.17453 | -108.29520 | 37112 ft | 525 kts | 106° |
| 2026-05-06 14:16 | 32.16587 | -108.21031 | 37113 ft | 525 kts | 107° |
| 2026-05-06 14:16 | 32.15707 | -108.12483 | 37113 ft | 524 kts | 106° |
| 2026-05-06 14:17 | 32.14827 | -108.04015 | 37116 ft | 525 kts | 106° |
| 2026-05-06 14:17 | 32.13942 | -107.95495 | 37116 ft | 524 kts | 107° |
| 2026-05-06 14:18 | 32.13050 | -107.87000 | 37115 ft | 523 kts | 107° |
| 2026-05-06 14:18 | 32.12151 | -107.78505 | 37110 ft | 524 kts | 106° |
| 2026-05-06 14:19 | 32.11246 | -107.69974 | 37105 ft | 523 kts | 107° |
| 2026-05-06 14:19 | 32.10334 | -107.61496 | 37108 ft | 524 kts | 106° |
| 2026-05-06 14:20 | 32.09419 | -107.52977 | 37107 ft | 523 kts | 107° |
| 2026-05-06 14:20 | 32.08501 | -107.44522 | 37104 ft | 524 kts | 106° |
| 2026-05-06 14:21 | 32.07573 | -107.36011 | 37101 ft | 524 kts | 106° |
| 2026-05-06 14:21 | 32.06648 | -107.27576 | 37100 ft | 524 kts | 107° |
| 2026-05-06 14:22 | 32.05708 | -107.19063 | 37100 ft | 523 kts | 107° |
| 2026-05-06 14:22 | 32.04765 | -107.10575 | 37099 ft | 523 kts | 107° |
| 2026-05-06 14:23 | 32.03822 | -107.02141 | 37096 ft | 522 kts | 107° |
| 2026-05-06 14:23 | 32.02861 | -106.93634 | 37094 ft | 524 kts | 107° |
| 2026-05-06 14:24 | 32.01909 | -106.85207 | 37099 ft | 523 kts | 107° |
| 2026-05-06 14:24 | 32.00944 | -106.76730 | 37098 ft | 523 kts | 107° |
| 2026-05-06 14:25 | 31.99971 | -106.68245 | 37102 ft | 523 kts | 108° |
| 2026-05-06 14:25 | 31.99003 | -106.59840 | 37099 ft | 522 kts | 108° |
| 2026-05-06 14:26 | 31.98015 | -106.51341 | 37101 ft | 522 kts | 108° |
| 2026-05-06 14:26 | 31.97031 | -106.42911 | 37102 ft | 523 kts | 108° |
| 2026-05-06 14:27 | 31.96034 | -106.34441 | 37099 ft | 523 kts | 108° |
| 2026-05-06 14:27 | 31.95190 | -106.25961 | 37093 ft | 527 kts | 103° |
| 2026-05-06 14:28 | 31.94979 | -106.17338 | 37099 ft | 530 kts | 99° |
| 2026-05-06 14:28 | 31.94886 | -106.08688 | 37109 ft | 528 kts | 99° |
| 2026-05-06 14:29 | 31.94760 | -106.00092 | 37118 ft | 528 kts | 100° |
| 2026-05-06 14:29 | 31.94609 | -105.91438 | 37124 ft | 529 kts | 100° |
| 2026-05-06 14:30 | 31.94451 | -105.82837 | 37125 ft | 529 kts | 100° |
| 2026-05-06 14:30 | 31.94288 | -105.74183 | 37124 ft | 530 kts | 99° |
| 2026-05-06 14:31 | 31.94123 | -105.65559 | 37121 ft | 529 kts | 99° |
| 2026-05-06 14:31 | 31.93944 | -105.56898 | 37121 ft | 531 kts | 100° |
| 2026-05-06 14:32 | 31.93767 | -105.48297 | 37128 ft | 530 kts | 100° |
| 2026-05-06 14:32 | 31.93581 | -105.39626 | 37126 ft | 530 kts | 100° |
| 2026-05-06 14:33 | 31.93386 | -105.30984 | 37117 ft | 530 kts | 100° |
| 2026-05-06 14:33 | 31.93209 | -105.22356 | 37113 ft | 530 kts | 100° |
| 2026-05-06 14:34 | 31.93025 | -105.13730 | 37108 ft | 531 kts | 99° |
| 2026-05-06 14:34 | 31.92838 | -105.05070 | 37093 ft | 530 kts | 99° |
| 2026-05-06 14:35 | 31.92637 | -104.96378 | 37084 ft | 530 kts | 99° |
| 2026-05-06 14:35 | 31.92435 | -104.87745 | 37097 ft | 531 kts | 100° |
| 2026-05-06 14:36 | 31.92231 | -104.79079 | 37091 ft | 530 kts | 100° |
| 2026-05-06 14:36 | 31.92013 | -104.70461 | 37101 ft | 530 kts | 100° |
| 2026-05-06 14:37 | 31.91790 | -104.61805 | 37098 ft | 530 kts | 100° |
| 2026-05-06 14:37 | 31.91563 | -104.53188 | 37089 ft | 530 kts | 100° |
| 2026-05-06 14:38 | 31.91329 | -104.44517 | 37074 ft | 531 kts | 100° |
| 2026-05-06 14:38 | 31.91094 | -104.35877 | 37070 ft | 531 kts | 100° |
| 2026-05-06 14:39 | 31.90853 | -104.27214 | 37064 ft | 529 kts | 101° |
| 2026-05-06 14:39 | 31.90599 | -104.18566 | 37059 ft | 530 kts | 101° |
| 2026-05-06 14:40 | 31.90347 | -104.09969 | 37054 ft | 528 kts | 101° |
| 2026-05-06 14:40 | 31.90081 | -104.01355 | 37039 ft | 530 kts | 101° |
| 2026-05-06 14:41 | 31.89812 | -103.92689 | 37032 ft | 530 kts | 101° |
| 2026-05-06 14:41 | 31.89539 | -103.84048 | 37030 ft | 530 kts | 101° |
| 2026-05-06 14:42 | 31.89262 | -103.75451 | 37027 ft | 529 kts | 101° |
| 2026-05-06 14:42 | 31.88973 | -103.66798 | 37029 ft | 530 kts | 100° |
| 2026-05-06 14:43 | 31.88685 | -103.58186 | 37034 ft | 530 kts | 101° |
| 2026-05-06 14:43 | 31.88388 | -103.49562 | 37035 ft | 531 kts | 101° |
| 2026-05-06 14:44 | 31.88084 | -103.40925 | 37031 ft | 530 kts | 101° |
| 2026-05-06 14:45 | 31.87654 | -103.27962 | 37029 ft | 531 kts | 99° |
| 2026-05-06 14:45 | 31.88092 | -103.19214 | 37022 ft | 541 kts | 88° |
| 2026-05-06 14:46 | 31.89252 | -103.10510 | 37017 ft | 544 kts | 85° |
| 2026-05-06 14:46 | 31.90488 | -103.01723 | 37013 ft | 544 kts | 86° |
| 2026-05-06 14:47 | 31.91668 | -102.92982 | 37015 ft | 544 kts | 87° |
| 2026-05-06 14:47 | 31.92824 | -102.84190 | 37019 ft | 543 kts | 86° |
| 2026-05-06 14:48 | 31.93964 | -102.75461 | 37015 ft | 543 kts | 86° |
| 2026-05-06 14:48 | 31.95095 | -102.66698 | 37022 ft | 542 kts | 86° |
| 2026-05-06 14:49 | 31.96229 | -102.57940 | 37027 ft | 542 kts | 86° |
| 2026-05-06 14:49 | 31.97353 | -102.49195 | 37013 ft | 544 kts | 86° |
| 2026-05-06 14:50 | 31.98475 | -102.40420 | 37007 ft | 543 kts | 86° |
| 2026-05-06 14:50 | 31.99589 | -102.31658 | 37007 ft | 542 kts | 87° |
| 2026-05-06 14:51 | 32.00698 | -102.22874 | 37013 ft | 543 kts | 87° |
| 2026-05-06 14:51 | 32.01796 | -102.14159 | 37017 ft | 541 kts | 87° |
| 2026-05-06 14:52 | 32.02884 | -102.05396 | 37021 ft | 542 kts | 87° |
| 2026-05-06 14:52 | 32.03979 | -101.96599 | 37017 ft | 542 kts | 87° |
| 2026-05-06 14:53 | 32.05057 | -101.87866 | 37012 ft | 541 kts | 87° |
| 2026-05-06 14:53 | 32.06130 | -101.79103 | 37012 ft | 541 kts | 87° |
| 2026-05-06 14:54 | 32.07198 | -101.70370 | 37012 ft | 540 kts | 87° |
| 2026-05-06 14:54 | 32.08254 | -101.61606 | 37018 ft | 541 kts | 86° |
| 2026-05-06 14:55 | 32.09314 | -101.52854 | 37015 ft | 540 kts | 87° |
| 2026-05-06 14:55 | 32.10357 | -101.44109 | 37013 ft | 540 kts | 87° |
| 2026-05-06 14:56 | 32.11396 | -101.35426 | 37015 ft | 538 kts | 86° |
| 2026-05-06 14:56 | 32.12431 | -101.26691 | 37015 ft | 538 kts | 88° |
| 2026-05-06 14:57 | 32.13457 | -101.17992 | 37014 ft | 537 kts | 88° |
| 2026-05-06 14:57 | 32.14470 | -101.09304 | 37011 ft | 536 kts | 88° |
| 2026-05-06 14:58 | 32.15481 | -101.00596 | 37015 ft | 536 kts | 87° |
| 2026-05-06 14:58 | 32.16488 | -100.91887 | 37012 ft | 536 kts | 88° |
| 2026-05-06 14:59 | 32.17482 | -100.83212 | 37004 ft | 536 kts | 87° |
| 2026-05-06 14:59 | 32.18479 | -100.74524 | 37001 ft | 535 kts | 88° |
| 2026-05-06 15:00 | 32.19458 | -100.65837 | 37003 ft | 537 kts | 87° |
| 2026-05-06 15:00 | 32.20439 | -100.57149 | 37006 ft | 537 kts | 87° |
| 2026-05-06 15:01 | 32.21418 | -100.48438 | 37004 ft | 536 kts | 87° |
| 2026-05-06 15:01 | 32.22386 | -100.39709 | 36998 ft | 537 kts | 87° |
| 2026-05-06 15:02 | 32.23352 | -100.30965 | 37001 ft | 538 kts | 87° |
| 2026-05-06 15:02 | 32.24315 | -100.22227 | 37003 ft | 539 kts | 88° |
| 2026-05-06 15:03 | 32.25272 | -100.13486 | 37006 ft | 540 kts | 88° |
| 2026-05-06 15:03 | 32.26221 | -100.04728 | 37004 ft | 539 kts | 87° |
| 2026-05-06 15:04 | 32.27160 | -99.95949 | 37006 ft | 540 kts | 87° |
| 2026-05-06 15:04 | 32.28049 | -99.87140 | 37014 ft | 538 kts | 91° |
| 2026-05-06 15:05 | 32.28552 | -99.78349 | 37018 ft | 537 kts | 91° |
| 2026-05-06 15:05 | 32.28991 | -99.69555 | 37023 ft | 538 kts | 92° |
| 2026-05-06 15:06 | 32.29446 | -99.60776 | 37022 ft | 536 kts | 92° |
| 2026-05-06 15:06 | 32.29897 | -99.51959 | 37021 ft | 537 kts | 91° |
| 2026-05-06 15:07 | 32.30344 | -99.43143 | 36585 ft | 536 kts | 91° |
| 2026-05-06 15:07 | 32.30568 | -99.38760 | 36144 ft | 533 kts | 91° |
| 2026-05-06 15:07 | 32.30794 | -99.34431 | 35590 ft | 532 kts | 93° |
| 2026-05-06 15:07 | 32.31012 | -99.30091 | 34998 ft | 531 kts | 92° |
| 2026-05-06 15:08 | 32.31227 | -99.25702 | 34376 ft | 531 kts | 92° |
| 2026-05-06 15:08 | 32.31438 | -99.21381 | 33741 ft | 531 kts | 94° |
| 2026-05-06 15:08 | 32.31647 | -99.17017 | 33106 ft | 530 kts | 93° |
| 2026-05-06 15:08 | 32.31856 | -99.12684 | 32493 ft | 530 kts | 93° |
| 2026-05-06 15:09 | 32.32059 | -99.08333 | 31872 ft | 530 kts | 93° |
| 2026-05-06 15:09 | 32.32262 | -99.03989 | 31241 ft | 530 kts | 93° |
| 2026-05-06 15:09 | 32.32468 | -98.99625 | 30579 ft | 531 kts | 92° |
| 2026-05-06 15:09 | 32.32677 | -98.95230 | 29888 ft | 532 kts | 92° |
| 2026-05-06 15:10 | 32.32883 | -98.90866 | 29203 ft | 533 kts | 92° |
| 2026-05-06 15:10 | 32.33089 | -98.86527 | 28522 ft | 533 kts | 92° |
| 2026-05-06 15:10 | 32.33296 | -98.82132 | 27879 ft | 532 kts | 92° |
| 2026-05-06 15:10 | 32.33501 | -98.77782 | 27399 ft | 526 kts | 91° |
| 2026-05-06 15:11 | 32.33701 | -98.73470 | 26932 ft | 521 kts | 91° |
| 2026-05-06 15:11 | 32.33895 | -98.69201 | 26476 ft | 515 kts | 91° |
| 2026-05-06 15:11 | 32.34089 | -98.64960 | 25976 ft | 511 kts | 91° |
| 2026-05-06 15:11 | 32.34274 | -98.60819 | 25497 ft | 507 kts | 92° |
| 2026-05-06 15:12 | 32.34458 | -98.56675 | 25002 ft | 503 kts | 91° |
| 2026-05-06 15:12 | 32.34641 | -98.52509 | 24507 ft | 499 kts | 91° |
| 2026-05-06 15:12 | 32.34820 | -98.48475 | 24049 ft | 495 kts | 91° |
| 2026-05-06 15:12 | 32.34999 | -98.44360 | 23574 ft | 492 kts | 91° |
| 2026-05-06 15:13 | 32.35171 | -98.40372 | 23112 ft | 488 kts | 91° |
| 2026-05-06 15:13 | 32.35345 | -98.36352 | 22620 ft | 486 kts | 91° |
| 2026-05-06 15:13 | 32.35518 | -98.32330 | 22133 ft | 482 kts | 91° |
| 2026-05-06 15:13 | 32.35684 | -98.28374 | 21648 ft | 478 kts | 91° |
| 2026-05-06 15:14 | 32.35843 | -98.24483 | 21181 ft | 474 kts | 91° |
| 2026-05-06 15:14 | 32.36003 | -98.20592 | 20702 ft | 470 kts | 91° |
| 2026-05-06 15:14 | 32.36162 | -98.16756 | 20224 ft | 467 kts | 91° |
| 2026-05-06 15:14 | 32.36319 | -98.12907 | 19738 ft | 463 kts | 91° |
| 2026-05-06 15:15 | 32.36471 | -98.09117 | 19253 ft | 459 kts | 91° |
| 2026-05-06 15:15 | 32.36618 | -98.05386 | 18745 ft | 456 kts | 91° |
| 2026-05-06 15:15 | 32.36765 | -98.01614 | 18263 ft | 453 kts | 91° |
| 2026-05-06 15:15 | 32.36907 | -97.97971 | 17764 ft | 449 kts | 91° |
| 2026-05-06 15:16 | 32.37049 | -97.94266 | 17317 ft | 444 kts | 91° |
| 2026-05-06 15:16 | 32.37192 | -97.90651 | 16861 ft | 440 kts | 91° |
| 2026-05-06 15:16 | 32.37334 | -97.87047 | 16374 ft | 436 kts | 91° |
| 2026-05-06 15:16 | 32.37477 | -97.83419 | 15906 ft | 431 kts | 91° |
| 2026-05-06 15:17 | 32.37614 | -97.79916 | 15460 ft | 426 kts | 91° |
| 2026-05-06 15:17 | 32.37749 | -97.76453 | 15006 ft | 421 kts | 91° |
| 2026-05-06 15:17 | 32.37880 | -97.73009 | 14551 ft | 416 kts | 91° |
| 2026-05-06 15:17 | 32.38010 | -97.69609 | 14076 ft | 411 kts | 91° |
| 2026-05-06 15:18 | 32.38135 | -97.66258 | 13609 ft | 407 kts | 91° |
| 2026-05-06 15:18 | 32.38534 | -97.62968 | 13113 ft | 409 kts | 74° |
| 2026-05-06 15:18 | 32.39907 | -97.60075 | 12672 ft | 405 kts | 49° |
| 2026-05-06 15:18 | 32.41906 | -97.57781 | 12293 ft | 398 kts | 39° |
| 2026-05-06 15:19 | 32.44008 | -97.55675 | 11870 ft | 393 kts | 39° |
| 2026-05-06 15:19 | 32.46043 | -97.53567 | 11445 ft | 388 kts | 41° |
| 2026-05-06 15:19 | 32.47981 | -97.51444 | 11301 ft | 374 kts | 42° |
| 2026-05-06 15:19 | 32.49836 | -97.49326 | 11229 ft | 359 kts | 45° |
| 2026-05-06 15:20 | 32.51147 | -97.46933 | 11123 ft | 343 kts | 72° |
| 2026-05-06 15:20 | 32.51575 | -97.44241 | 11080 ft | 325 kts | 88° |
| 2026-05-06 15:20 | 32.51717 | -97.41589 | 11025 ft | 323 kts | 90° |
| 2026-05-06 15:20 | 32.51860 | -97.38934 | 10973 ft | 321 kts | 88° |
| 2026-05-06 15:21 | 32.52079 | -97.36307 | 10657 ft | 319 kts | 86° |
| 2026-05-06 15:21 | 32.52329 | -97.33716 | 10246 ft | 319 kts | 85° |
| 2026-05-06 15:21 | 32.52592 | -97.31123 | 9880 ft | 316 kts | 85° |
| 2026-05-06 15:21 | 32.52857 | -97.28547 | 9566 ft | 312 kts | 85° |
| 2026-05-06 15:22 | 32.53120 | -97.26014 | 9233 ft | 308 kts | 85° |
| 2026-05-06 15:22 | 32.53380 | -97.23525 | 9048 ft | 299 kts | 85° |
| 2026-05-06 15:22 | 32.53629 | -97.21127 | 8875 ft | 289 kts | 85° |
| 2026-05-06 15:22 | 32.53869 | -97.18806 | 8708 ft | 280 kts | 85° |
| 2026-05-06 15:23 | 32.54102 | -97.16549 | 8541 ft | 271 kts | 85° |
| 2026-05-06 15:23 | 32.54326 | -97.14370 | 8376 ft | 263 kts | 85° |
| 2026-05-06 15:23 | 32.54573 | -97.12286 | 8209 ft | 256 kts | 77° |
| 2026-05-06 15:23 | 32.55439 | -97.10467 | 7935 ft | 253 kts | 38° |
| 2026-05-06 15:24 | 32.56960 | -97.09636 | 7733 ft | 240 kts | 7° |
| 2026-05-06 15:24 | 32.58598 | -97.09366 | 7482 ft | 236 kts | 3° |
| 2026-05-06 15:24 | 32.60240 | -97.09136 | 7138 ft | 234 kts | 5° |
| 2026-05-06 15:24 | 32.61845 | -97.08836 | 6691 ft | 233 kts | 8° |
| 2026-05-06 15:25 | 32.63428 | -97.08467 | 6285 ft | 229 kts | 9° |
| 2026-05-06 15:25 | 32.64938 | -97.08070 | 6039 ft | 215 kts | 10° |
| 2026-05-06 15:25 | 32.66414 | -97.07667 | 5523 ft | 214 kts | 11° |
| 2026-05-06 15:25 | 32.67865 | -97.07259 | 5047 ft | 211 kts | 11° |
| 2026-05-06 15:26 | 32.69294 | -97.06853 | 4585 ft | 206 kts | 12° |
| 2026-05-06 15:26 | 32.70684 | -97.06458 | 4145 ft | 199 kts | 12° |
| 2026-05-06 15:26 | 32.72033 | -97.06074 | 3698 ft | 194 kts | 13° |
| 2026-05-06 15:26 | 32.73314 | -97.05640 | 3371 ft | 188 kts | 13° |
| 2026-05-06 15:27 | 32.74607 | -97.05334 | 3142 ft | 187 kts | 7° |
| 2026-05-06 15:27 | 32.75888 | -97.05199 | 2919 ft | 182 kts | 4° |
| 2026-05-06 15:27 | 32.77140 | -97.05151 | 2685 ft | 174 kts | 1° |
| 2026-05-06 15:27 | 32.78331 | -97.05139 | 2461 ft | 167 kts | 0° |
| 2026-05-06 15:28 | 32.79436 | -97.05135 | 2275 ft | 149 kts | 360° |
| 2026-05-06 15:28 | 32.80409 | -97.05132 | 2039 ft | 133 kts | 1° |
| 2026-05-06 15:28 | 32.81332 | -97.05128 | 1859 ft | 127 kts | 0° |
| 2026-05-06 15:28 | 32.82228 | -97.05123 | 1698 ft | 127 kts | 0° |
| 2026-05-06 15:29 | 32.83117 | -97.05117 | 1533 ft | 126 kts | 0° |
| 2026-05-06 15:29 | 32.83997 | -97.05112 | 1375 ft | 127 kts | 360° |
| 2026-05-06 15:29 | 32.84875 | -97.05115 | 1175 ft | 126 kts | 359° |
| 2026-05-06 15:29 | 32.85756 | -97.05117 | 1014 ft | 127 kts | 360° |
| 2026-05-06 15:30 | 32.86644 | -97.05108 | 860 ft | 128 kts | 0° |
| 2026-05-06 15:30 | 32.87532 | -97.05096 | 665 ft | 128 kts | 0° |
| 2026-05-06 15:30 | 32.88408 | -97.05092 | 575 ft | 116 kts | 360° |
| 2026-05-06 15:30 | 32.89052 | -97.05093 | 588 ft | 67 kts | 1° |
| 2026-05-06 15:31 | 32.89347 | -97.05083 | 597 ft | 19 kts | 2° |
| 2026-05-06 15:31 | 32.89369 | -97.05079 | 597 ft | 0 kts | 18° |
| 2026-05-06 15:31 | 32.89372 | -97.05077 | 598 ft | 0 kts | 30° |
| 2026-05-06 15:32 | 32.89405 | -97.04961 | 597 ft | 4 kts | 92° |
| 2026-05-06 15:32 | 32.89405 | -97.04956 | 597 ft | 0 kts | 92° |
| 2026-05-06 15:34 | 32.89405 | -97.04955 | 597 ft | 0 kts | 92° |
| 2026-05-06 15:34 | 32.89405 | -97.04939 | 597 ft | 3 kts | 91° |
| 2026-05-06 15:34 | 32.89402 | -97.04893 | 597 ft | 7 kts | 95° |
| 2026-05-06 15:35 | 32.89400 | -97.04817 | 597 ft | 11 kts | 90° |
| 2026-05-06 15:35 | 32.89432 | -97.04762 | 597 ft | 5 kts | 63° |
| 2026-05-06 15:35 | 32.89432 | -97.04684 | 595 ft | 10 kts | 95° |
| 2026-05-06 15:35 | 32.89434 | -97.04585 | 593 ft | 11 kts | 53° |
| 2026-05-06 15:36 | 32.89481 | -97.04542 | 593 ft | 5 kts | 32° |
| 2026-05-06 15:36 | 32.89510 | -97.04521 | 594 ft | 3 kts | 30° |
| 2026-05-06 15:36 | 32.89514 | -97.04518 | 594 ft | 0 kts | 30° |
| 2026-05-06 15:36 | 32.89516 | -97.04517 | 594 ft | 0 kts | 30° |